Time;durP1;ratioP1;P1;durP2;ratioP2;P2;SDS_P1;SDS_P2;PMS_P1;PMS_P2;Temp;Humidity;BMP_temperature;BMP_pressure;BME280_temperature;BME280_humidity;BME280_pressure;Samples;Min_cycle;Max_cycle;Signal;HPM_P1;HPM_P2
2023/08/20 00:00:31;;;;;;;;;;;;;;;24.93;43.27;100857.25;4879415;28;118362;-72
2023/08/20 00:03:03;;;;;;;;;;;;;;;24.89;43.62;100853.63;4860816;28;102232;-72
2023/08/20 00:05:32;;;;;;;;;;;;;;;24.84;43.43;100854.69;4915699;28;98769;-72
2023/08/20 00:07:58;;;;;;;;;;;;;;;24.80;43.51;100851.03;4883792;28;99778;-72
2023/08/20 00:10:24;;;;;;;;;;;;;;;24.73;43.76;100851.66;4865253;28;115019;-71
2023/08/20 00:12:50;;;;;;;;;;;;;;;24.71;43.39;100861.41;4867122;28;99746;-71
2023/08/20 00:15:17;;;;;;;;;;;;;;;24.68;43.54;100853.84;4869970;28;98292;-71
2023/08/20 00:17:43;;;;;;;;;;;;;;;24.67;43.60;100861.31;4870654;28;98153;-71
2023/08/20 00:20:12;;;;;;;;;;;;;;;24.68;43.55;100873.13;4871125;28;98585;-71
2023/08/20 00:22:38;;;;;;;;;;;;;;;24.69;43.67;100866.50;4877575;28;98373;-71
2023/08/20 00:25:05;;;;;;;;;;;;;;;24.68;43.45;100857.44;4871592;28;99558;-71
2023/08/20 00:27:31;;;;;;;;;;;;;;;24.69;43.54;100869.25;4867063;28;99590;-71
2023/08/20 00:29:57;;;;;;;;;;;;;;;24.66;43.61;100858.91;4877870;28;110240;-71
2023/08/20 00:32:24;;;;;;;;;;;;;;;24.65;43.53;100854.56;4871231;28;98122;-71
2023/08/20 00:34:50;;;;;;;;;;;;;;;24.63;43.75;100862.38;4884536;28;98233;-71
2023/08/20 00:37:16;;;;;;;;;;;;;;;24.62;43.86;100866.28;4866825;28;98073;-71
2023/08/20 00:39:43;;;;;;;;;;;;;;;24.62;43.69;100869.06;4867746;28;98112;-71
2023/08/20 00:42:09;;;;;;;;;;;;;;;24.63;43.48;100876.16;4894177;28;98544;-72
2023/08/20 00:44:35;;;;;;;;;;;;;;;24.65;43.72;100874.66;4862767;28;98084;-71
2023/08/20 00:47:02;;;;;;;;;;;;;;;24.65;43.55;100871.91;4883449;28;98484;-71
2023/08/20 00:49:29;;;;;;;;;;;;;;;24.65;43.80;100868.34;4865717;28;97960;-71
2023/08/20 00:51:55;;;;;;;;;;;;;;;24.65;43.63;100868.34;4870078;28;98988;-71
2023/08/20 00:54:21;;;;;;;;;;;;;;;24.65;43.68;100866.41;4878542;28;115041;-71
2023/08/20 00:56:48;;;;;;;;;;;;;;;24.64;43.79;100873.06;4886106;28;98398;-71
2023/08/20 00:59:15;;;;;;;;;;;;;;;24.64;43.73;100862.03;4862170;28;98193;-71
2023/08/20 01:01:41;;;;;;;;;;;;;;;24.64;43.68;100864.81;4881777;28;98304;-71
2023/08/20 01:04:07;;;;;;;;;;;;;;;24.63;43.54;100856.88;4887340;28;116494;-71
2023/08/20 01:07:00;;;;;;;;;;;;;;;24.61;43.51;100871.00;4869001;28;98821;-72
2023/08/20 01:09:47;;;;;;;;;;;;;;;24.61;43.52;100868.25;4902399;28;99043;-71
2023/08/20 01:12:13;;;;;;;;;;;;;;;24.61;43.55;100873.75;4904088;28;98291;-71
2023/08/20 01:14:40;;;;;;;;;;;;;;;24.62;43.82;100880.06;4866329;28;98189;-71
2023/08/20 01:17:06;;;;;;;;;;;;;;;24.62;43.64;100878.13;4873304;28;98667;-71
2023/08/20 01:19:32;;;;;;;;;;;;;;;24.63;43.93;100882.47;4874437;28;98449;-71
2023/08/20 01:22:36;;;;;;;;;;;;;;;24.63;43.64;100885.22;4849153;28;98329;-71
2023/08/20 01:25:23;;;;;;;;;;;;;;;24.65;43.62;100893.94;4879603;28;99503;-71
2023/08/20 01:28:03;;;;;;;;;;;;;;;24.64;43.63;100881.34;4882216;28;100142;-72
2023/08/20 01:30:33;;;;;;;;;;;;;;;24.64;43.67;100880.50;4868116;28;99434;-71
2023/08/20 01:33:00;;;;;;;;;;;;;;;24.65;43.81;100877.41;4849018;28;98061;-71
2023/08/20 01:35:26;;;;;;;;;;;;;;;24.66;43.87;100883.72;4867307;28;98734;-72
2023/08/20 01:37:52;;;;;;;;;;;;;;;24.66;43.45;100884.53;4878774;28;98392;-71
2023/08/20 01:40:18;;;;;;;;;;;;;;;24.63;43.95;100885.22;4866776;28;99622;-72
2023/08/20 01:42:45;;;;;;;;;;;;;;;24.64;43.75;100892.34;4846647;28;98432;-73
2023/08/20 01:45:10;;;;;;;;;;;;;;;24.64;43.99;100908.88;4855043;28;98116;-72
2023/08/20 01:47:37;;;;;;;;;;;;;;;24.64;43.81;100908.88;4855538;28;99279;-72
2023/08/20 01:50:04;;;;;;;;;;;;;;;24.63;43.69;100907.25;4853084;28;98256;-72
2023/08/20 01:52:30;;;;;;;;;;;;;;;24.64;43.78;100908.88;4844126;28;98220;-72
2023/08/20 01:54:56;;;;;;;;;;;;;;;24.65;43.96;100918.75;4853539;28;100225;-72
2023/08/20 01:57:22;;;;;;;;;;;;;;;24.64;44.04;100917.16;4861071;28;98160;-72
2023/08/20 01:59:48;;;;;;;;;;;;;;;24.65;43.68;100923.47;4852853;28;111922;-72
2023/08/20 02:02:14;;;;;;;;;;;;;;;24.64;43.93;100921.84;4849541;28;99513;-72
2023/08/20 02:04:40;;;;;;;;;;;;;;;24.64;44.06;100922.66;4843579;28;98194;-72
2023/08/20 02:07:07;;;;;;;;;;;;;;;24.63;43.64;100926.56;4855735;28;97993;-72
2023/08/20 02:09:33;;;;;;;;;;;;;;;24.62;43.83;100926.91;4846667;28;98034;-71
2023/08/20 02:11:59;;;;;;;;;;;;;;;24.62;43.77;100926.91;4857390;28;99120;-71
2023/08/20 02:14:27;;;;;;;;;;;;;;;24.60;43.88;100927.28;4852596;28;98650;-71
2023/08/20 02:16:52;;;;;;;;;;;;;;;24.60;43.84;100929.19;4871779;28;98045;-71
2023/08/20 02:19:19;;;;;;;;;;;;;;;24.57;43.75;100930.72;4873517;28;98395;-71
2023/08/20 02:21:45;;;;;;;;;;;;;;;24.57;44.07;100939.00;4871637;28;98347;-71
2023/08/20 02:24:11;;;;;;;;;;;;;;;24.57;44.07;100938.19;4880383;28;98243;-71
2023/08/20 02:26:37;;;;;;;;;;;;;;;24.56;43.84;100942.88;4888300;28;98122;-71
2023/08/20 02:29:05;;;;;;;;;;;;;;;24.54;43.80;100931.41;4885175;28;98168;-72
2023/08/20 02:31:31;;;;;;;;;;;;;;;24.52;43.75;100930.16;4887289;28;97938;-72
2023/08/20 02:33:57;;;;;;;;;;;;;;;24.51;43.77;100939.59;4894532;28;98218;-71
2023/08/20 02:36:23;;;;;;;;;;;;;;;24.50;43.82;100936.03;4861040;28;100176;-71
2023/08/20 02:38:50;;;;;;;;;;;;;;;24.48;44.00;100932.81;4868824;28;101816;-71
2023/08/20 02:41:16;;;;;;;;;;;;;;;24.48;44.13;100946.59;4867802;28;98441;-71
2023/08/20 02:43:42;;;;;;;;;;;;;;;24.46;43.78;100941.44;4866279;28;105426;-71
2023/08/20 02:46:09;;;;;;;;;;;;;;;24.46;44.05;100937.88;4863174;28;99791;-71
2023/08/20 02:48:35;;;;;;;;;;;;;;;24.43;44.06;100944.09;4866415;28;99830;-72
2023/08/20 02:51:01;;;;;;;;;;;;;;;24.38;44.04;100936.06;4856585;28;98189;-71
2023/08/20 02:53:28;;;;;;;;;;;;;;;24.36;44.16;100932.81;4864961;28;98153;-72
2023/08/20 02:55:54;;;;;;;;;;;;;;;24.34;43.95;100937.91;4879059;28;99612;-71
2023/08/20 02:58:20;;;;;;;;;;;;;;;24.31;44.07;100933.88;4870619;28;98313;-72
2023/08/20 03:00:47;;;;;;;;;;;;;;;24.28;44.13;100931.03;4850813;28;98508;-72
2023/08/20 03:03:13;;;;;;;;;;;;;;;24.25;44.15;100938.03;4865049;28;109753;-71
2023/08/20 03:05:39;;;;;;;;;;;;;;;24.24;44.04;100936.41;4866856;28;98143;-71
2023/08/20 03:08:06;;;;;;;;;;;;;;;24.22;43.95;100931.28;4883234;28;98269;-72
2023/08/20 03:10:32;;;;;;;;;;;;;;;24.22;43.96;100935.97;4860127;28;98171;-71
2023/08/20 03:13:00;;;;;;;;;;;;;;;24.20;44.11;100933.56;4849899;28;98364;-72
2023/08/20 03:15:27;;;;;;;;;;;;;;;24.19;44.31;100933.91;4865011;28;100224;-71
2023/08/20 03:17:53;;;;;;;;;;;;;;;24.18;43.93;100941.38;4846283;28;101262;-71
2023/08/20 03:20:19;;;;;;;;;;;;;;;24.16;44.18;100940.91;4882725;28;98578;-71
2023/08/20 03:22:47;;;;;;;;;;;;;;;24.13;44.35;100944.38;4866003;28;116637;-72
2023/08/20 03:25:14;;;;;;;;;;;;;;;24.12;44.30;100944.72;4879863;28;98325;-72
2023/08/20 03:27:41;;;;;;;;;;;;;;;24.09;44.31;100942.66;4863504;28;98020;-71
2023/08/20 03:30:07;;;;;;;;;;;;;;;24.05;44.19;100945.31;4882594;28;98025;-72
2023/08/20 03:32:33;;;;;;;;;;;;;;;24.01;44.42;100949.88;4879239;28;98495;-71
2023/08/20 03:34:59;;;;;;;;;;;;;;;23.99;44.22;100954.94;4881246;28;98123;-71
2023/08/20 03:37:26;;;;;;;;;;;;;;;23.96;44.31;100956.44;4864562;28;98434;-71
2023/08/20 03:39:53;;;;;;;;;;;;;;;23.94;44.07;100952.44;4884473;28;98129;-71
2023/08/20 03:42:19;;;;;;;;;;;;;;;23.93;44.13;100953.56;4866620;28;98580;-72
2023/08/20 03:44:45;;;;;;;;;;;;;;;23.92;44.08;100957.47;4880400;28;99270;-72
2023/08/20 03:47:11;;;;;;;;;;;;;;;23.91;44.45;100967.69;4883756;28;98179;-72
2023/08/20 03:49:38;;;;;;;;;;;;;;;23.91;44.21;100966.88;4862493;28;97959;-72
2023/08/20 03:52:06;;;;;;;;;;;;;;;23.88;44.09;100962.88;4876570;28;98655;-72
2023/08/20 03:54:33;;;;;;;;;;;;;;;23.87;44.37;100969.53;4868326;28;98112;-71
2023/08/20 03:57:00;;;;;;;;;;;;;;;23.86;44.19;100965.19;4879643;28;98017;-72
2023/08/20 03:59:26;;;;;;;;;;;;;;;23.85;44.36;100971.81;4866650;28;98255;-72
2023/08/20 04:01:52;;;;;;;;;;;;;;;23.85;44.39;100968.25;4877258;28;98848;-72
2023/08/20 04:04:20;;;;;;;;;;;;;;;23.86;44.08;100969.88;4881870;28;99916;-72
2023/08/20 04:06:46;;;;;;;;;;;;;;;23.87;44.36;100974.25;4866657;28;98236;-72
2023/08/20 04:09:12;;;;;;;;;;;;;;;23.87;44.05;100977.78;4882235;28;98240;-73
2023/08/20 04:11:39;;;;;;;;;;;;;;;23.87;44.33;100968.72;4875415;28;98881;-73
2023/08/20 04:14:05;;;;;;;;;;;;;;;23.86;44.43;100978.94;4899556;28;99253;-73
2023/08/20 04:16:31;;;;;;;;;;;;;;;23.87;44.10;100982.50;4865185;28;98561;-73
2023/08/20 04:18:57;;;;;;;;;;;;;;;23.88;44.48;100995.09;4864047;28;98076;-72
2023/08/20 04:21:23;;;;;;;;;;;;;;;23.89;44.23;100991.19;4848406;28;99863;-73
2023/08/20 04:23:50;;;;;;;;;;;;;;;23.90;44.16;101004.63;4874327;28;98154;-72
2023/08/20 04:26:16;;;;;;;;;;;;;;;23.91;44.40;100995.22;4860241;28;101256;-73
2023/08/20 04:28:42;;;;;;;;;;;;;;;23.93;43.96;100997.63;4877931;28;100425;-73
2023/08/20 04:31:09;;;;;;;;;;;;;;;23.97;44.30;101004.84;4867981;28;98045;-73
2023/08/20 04:33:36;;;;;;;;;;;;;;;23.99;44.11;100993.50;4856668;28;98562;-71
2023/08/20 04:36:02;;;;;;;;;;;;;;;24.01;43.95;100993.94;4850988;28;101290;-71
2023/08/20 04:38:28;;;;;;;;;;;;;;;24.04;44.00;100996.00;4868627;28;98085;-71
2023/08/20 04:40:54;;;;;;;;;;;;;;;24.08;44.37;100996.13;4875643;28;104806;-71
2023/08/20 04:43:20;;;;;;;;;;;;;;;24.12;44.16;101000.56;4875636;28;116464;-72
2023/08/20 04:45:46;;;;;;;;;;;;;;;24.17;44.06;101010.53;4883773;28;99501;-72
2023/08/20 04:48:12;;;;;;;;;;;;;;;24.21;44.31;101003.22;4874779;28;98429;-73
2023/08/20 04:50:38;;;;;;;;;;;;;;;24.25;44.23;101002.19;4840457;28;129253;-72
2023/08/20 04:53:05;;;;;;;;;;;;;;;24.29;44.17;101004.22;4874388;28;99511;-72
2023/08/20 04:55:31;;;;;;;;;;;;;;;24.32;43.94;101009.03;4873847;28;98403;-72
2023/08/20 04:57:57;;;;;;;;;;;;;;;24.35;44.14;101009.16;4863148;28;98440;-73
2023/08/20 05:00:23;;;;;;;;;;;;;;;24.37;44.02;101006.88;4865504;28;98152;-73
2023/08/20 05:02:49;;;;;;;;;;;;;;;24.40;44.02;101008.13;4875997;28;114407;-72
2023/08/20 05:05:15;;;;;;;;;;;;;;;24.43;44.16;101008.25;4874671;28;99919;-72
2023/08/20 05:07:41;;;;;;;;;;;;;;;24.48;44.28;101016.28;4862455;28;98070;-72
2023/08/20 05:10:08;;;;;;;;;;;;;;;24.54;43.82;101013.28;4848360;28;98188;-72
2023/08/20 05:12:35;;;;;;;;;;;;;;;24.59;43.79;101026.81;4892089;28;97959;-73
2023/08/20 05:15:01;;;;;;;;;;;;;;;24.62;44.17;101028.88;4853690;28;111620;-72
2023/08/20 05:17:27;;;;;;;;;;;;;;;24.65;44.04;101039.19;4860615;28;99546;-72
2023/08/20 05:19:53;;;;;;;;;;;;;;;24.69;43.92;101038.16;4877643;28;98168;-72
2023/08/20 05:22:19;;;;;;;;;;;;;;;24.77;43.81;101038.38;4867016;28;98563;-72
2023/08/20 05:24:45;;;;;;;;;;;;;;;24.85;43.79;101043.72;4872306;28;98902;-72
2023/08/20 05:27:14;;;;;;;;;;;;;;;24.96;43.75;101038.53;4879212;28;98737;-72
2023/08/20 05:29:40;;;;;;;;;;;;;;;25.07;43.69;101025.00;4878583;28;99472;-72
2023/08/20 05:32:07;;;;;;;;;;;;;;;25.18;43.70;101026.94;4873693;28;98618;-72
2023/08/20 05:34:33;;;;;;;;;;;;;;;25.30;43.45;101036.31;4870792;28;98438;-73
2023/08/20 05:36:59;;;;;;;;;;;;;;;25.41;43.28;101045.66;4883442;28;98719;-73
2023/08/20 05:39:26;;;;;;;;;;;;;;;25.55;43.21;101056.28;4866337;28;99929;-71
2023/08/20 05:41:53;;;;;;;;;;;;;;;25.70;43.40;101061.00;4866829;28;100739;-73
2023/08/20 05:44:20;;;;;;;;;;;;;;;25.89;42.98;101063.06;4850380;28;98230;-73
2023/08/20 05:46:46;;;;;;;;;;;;;;;26.01;42.93;101060.22;4884053;28;98454;-72
2023/08/20 05:49:15;;;;;;;;;;;;;;;26.08;43.14;101065.91;4845077;28;100055;-72
2023/08/20 05:51:44;;;;;;;;;;;;;;;26.27;42.94;101065.19;4881791;28;99084;-72
2023/08/20 05:54:11;;;;;;;;;;;;;;;26.41;42.82;101073.81;4874611;28;98513;-72
2023/08/20 05:56:37;;;;;;;;;;;;;;;26.53;42.92;101085.94;4881835;28;98353;-72
2023/08/20 05:59:03;;;;;;;;;;;;;;;26.54;43.03;101101.34;4881326;28;104699;-72
2023/08/20 06:01:30;;;;;;;;;;;;;;;26.57;42.96;101095.91;4879458;28;98335;-72
2023/08/20 06:03:56;;;;;;;;;;;;;;;26.58;43.06;101094.72;4861763;28;98112;-72
2023/08/20 06:06:22;;;;;;;;;;;;;;;26.61;43.18;101101.50;4862717;28;98137;-72
2023/08/20 06:08:48;;;;;;;;;;;;;;;26.61;43.18;101096.78;4882267;28;98635;-72
2023/08/20 06:11:15;;;;;;;;;;;;;;;26.61;43.21;101107.03;4866770;28;98162;-72
2023/08/20 06:13:41;;;;;;;;;;;;;;;26.56;43.24;101105.31;4862227;28;98070;-72
2023/08/20 06:16:07;;;;;;;;;;;;;;;26.53;43.27;101102.50;4884685;28;98472;-72
2023/08/20 06:18:34;;;;;;;;;;;;;;;26.51;43.42;101107.59;4856542;28;104030;-71
2023/08/20 06:21:00;;;;;;;;;;;;;;;26.48;43.60;101111.06;4863637;28;99325;-72
2023/08/20 06:23:26;;;;;;;;;;;;;;;26.46;43.60;101100.38;4847774;28;98352;-71
2023/08/20 06:25:52;;;;;;;;;;;;;;;26.46;43.36;101102.34;4873057;28;98685;-72
2023/08/20 06:28:19;;;;;;;;;;;;;;;26.44;43.53;101103.44;4879789;28;99976;-71
2023/08/20 06:30:45;;;;;;;;;;;;;;;26.40;43.67;101102.56;4863709;28;99875;-72
2023/08/20 06:33:11;;;;;;;;;;;;;;;26.36;43.73;101107.22;4861815;28;98421;-72
2023/08/20 06:35:38;;;;;;;;;;;;;;;26.32;43.82;101114.63;4864017;28;98132;-72
2023/08/20 06:38:04;;;;;;;;;;;;;;;26.29;43.61;101111.78;4860452;28;99767;-72
2023/08/20 06:40:31;;;;;;;;;;;;;;;26.24;43.82;101121.13;4858583;28;98352;-72
2023/08/20 06:42:57;;;;;;;;;;;;;;;26.22;43.89;101117.94;4863296;28;98407;-72
2023/08/20 06:45:23;;;;;;;;;;;;;;;26.18;43.92;101115.09;4865064;28;98834;-72
2023/08/20 06:47:49;;;;;;;;;;;;;;;26.16;43.91;101116.59;4862147;28;98280;-72
2023/08/20 06:50:16;;;;;;;;;;;;;;;26.12;43.97;101111.00;4879809;28;97964;-71
2023/08/20 06:52:42;;;;;;;;;;;;;;;26.12;43.93;101101.91;4880585;28;98272;-71
2023/08/20 06:55:08;;;;;;;;;;;;;;;26.12;43.85;101101.91;4880036;28;98364;-72
2023/08/20 06:57:34;;;;;;;;;;;;;;;26.16;43.79;101119.38;4864817;28;98766;-71
2023/08/20 07:00:01;;;;;;;;;;;;;;;26.26;43.73;101124.34;4878392;28;99655;-71
2023/08/20 07:02:27;;;;;;;;;;;;;;;26.38;43.61;101129.78;4864882;28;100062;-71
2023/08/20 07:04:53;;;;;;;;;;;;;;;26.52;43.54;101139.56;4863104;28;98099;-72
2023/08/20 07:07:19;;;;;;;;;;;;;;;26.62;43.46;101133.50;4859411;28;99528;-72
2023/08/20 07:09:45;;;;;;;;;;;;;;;26.71;43.07;101141.59;4862356;28;122174;-71
2023/08/20 07:12:11;;;;;;;;;;;;;;;26.80;43.18;101139.41;4879582;28;130330;-72
2023/08/20 07:14:38;;;;;;;;;;;;;;;26.86;43.36;101147.06;4862291;28;98182;-73
2023/08/20 07:17:05;;;;;;;;;;;;;;;26.90;43.25;101147.94;4897218;28;98533;-72
2023/08/20 07:19:31;;;;;;;;;;;;;;;26.95;43.26;101152.41;4853595;28;98136;-71
2023/08/20 07:21:57;;;;;;;;;;;;;;;26.97;43.38;101149.28;4864471;28;101407;-73
2023/08/20 07:24:25;;;;;;;;;;;;;;;26.95;43.39;101160.69;4876653;28;98580;-71
2023/08/20 07:26:52;;;;;;;;;;;;;;;26.91;43.53;101146.00;4875340;28;99359;-73
2023/08/20 07:29:18;;;;;;;;;;;;;;;26.83;43.68;101147.78;4859475;28;98472;-72
2023/08/20 07:31:44;;;;;;;;;;;;;;;26.74;43.71;101149.97;4858208;28;98381;-73
2023/08/20 07:34:11;;;;;;;;;;;;;;;26.64;43.77;101145.00;4838652;28;98915;-72
2023/08/20 07:36:37;;;;;;;;;;;;;;;26.57;44.00;101153.16;4827197;28;98901;-71
2023/08/20 07:39:03;;;;;;;;;;;;;;;26.52;44.13;101156.16;4862189;28;109108;-73
2023/08/20 07:41:29;;;;;;;;;;;;;;;26.49;43.97;101156.88;4873474;28;98347;-71
2023/08/20 07:43:55;;;;;;;;;;;;;;;26.49;44.03;101167.94;4859381;28;98381;-71
2023/08/20 07:46:21;;;;;;;;;;;;;;;26.51;43.86;101169.19;4873447;28;106429;-71
2023/08/20 07:48:47;;;;;;;;;;;;;;;26.57;43.72;101175.25;4856845;28;98540;-73
2023/08/20 07:51:13;;;;;;;;;;;;;;;26.65;43.58;101177.03;4876236;28;100294;-72
2023/08/20 07:53:39;;;;;;;;;;;;;;;26.75;43.62;101168.16;4872846;28;98018;-71
2023/08/20 07:56:06;;;;;;;;;;;;;;;26.92;43.29;101173.28;4864544;28;98526;-73
2023/08/20 07:58:32;;;;;;;;;;;;;;;27.12;43.37;101178.88;4858472;28;98169;-73
2023/08/20 08:00:59;;;;;;;;;;;;;;;27.24;43.12;101183.47;4862265;28;98152;-72
2023/08/20 08:03:26;;;;;;;;;;;;;;;27.31;43.37;101189.97;4861508;28;98263;-72
2023/08/20 08:05:54;;;;;;;;;;;;;;;27.42;43.22;101187.38;4876118;28;98098;-73
2023/08/20 08:08:21;;;;;;;;;;;;;;;27.62;43.05;101188.97;4856976;28;98361;-72
2023/08/20 08:10:47;;;;;;;;;;;;;;;28.21;42.18;101192.44;4856632;28;98302;-72
2023/08/20 08:13:14;;;;;;;;;;;;;;;28.15;42.35;101196.72;4861143;28;98019;-73
2023/08/20 08:15:41;;;;;;;;;;;;;;;28.16;42.84;101203.84;4841415;28;98121;-72
2023/08/20 08:18:07;;;;;;;;;;;;;;;28.71;42.15;101204.38;4871197;28;98231;-72
2023/08/20 08:20:33;;;;;;;;;;;;;;;28.87;41.87;101205.00;4869819;28;98000;-73
2023/08/20 08:22:59;;;;;;;;;;;;;;;28.90;42.31;101216.53;4877179;28;98606;-72
2023/08/20 08:25:26;;;;;;;;;;;;;;;28.90;42.30;101216.53;4853128;28;98535;-72
2023/08/20 08:27:52;;;;;;;;;;;;;;;30.41;40.51;101208.78;4857914;28;98156;-72
2023/08/20 08:30:18;;;;;;;;;;;;;;;31.58;39.54;101222.59;4869072;28;99408;-73
2023/08/20 08:32:44;;;;;;;;;;;;;;;33.56;37.97;101227.69;4867741;28;98056;-73
2023/08/20 08:35:10;;;;;;;;;;;;;;;34.12;37.46;101219.41;4855875;28;98443;-72
2023/08/20 08:37:36;;;;;;;;;;;;;;;33.62;38.77;101211.31;4873534;28;117783;-73
2023/08/20 08:40:05;;;;;;;;;;;;;;;33.65;38.94;101219.69;4858253;28;98443;-71
2023/08/20 08:42:32;;;;;;;;;;;;;;;32.59;40.88;101218.00;4870274;28;98069;-72
2023/08/20 08:44:59;;;;;;;;;;;;;;;31.88;41.34;101210.38;4842783;28;98475;-71
2023/08/20 08:47:25;;;;;;;;;;;;;;;31.34;41.80;101220.53;4849286;28;99501;-71
2023/08/20 08:49:51;;;;;;;;;;;;;;;30.89;42.31;101229.03;4857706;28;126262;-71
2023/08/20 08:52:17;;;;;;;;;;;;;;;30.48;42.77;101217.97;4876214;28;98107;-73
2023/08/20 08:54:44;;;;;;;;;;;;;;;30.18;42.87;101212.53;4870278;28;98032;-72
2023/08/20 08:57:10;;;;;;;;;;;;;;;29.95;43.12;101225.81;4869253;28;99031;-72
2023/08/20 08:59:37;;;;;;;;;;;;;;;29.77;43.22;101225.63;4838986;28;98769;-72
2023/08/20 09:02:08;;;;;;;;;;;;;;;29.66;43.32;101219.94;4838848;28;98300;-71
2023/08/20 09:04:34;;;;;;;;;;;;;;;29.59;43.06;101220.69;4855946;28;98158;-72
2023/08/20 09:07:00;;;;;;;;;;;;;;;29.50;42.86;101231.22;4841877;28;98277;-72
2023/08/20 09:09:28;;;;;;;;;;;;;;;29.30;43.50;101235.34;4869334;28;98542;-72
2023/08/20 09:11:54;;;;;;;;;;;;;;;29.12;43.33;101229.53;4845067;28;98580;-72
2023/08/20 09:14:22;;;;;;;;;;;;;;;28.98;43.34;101213.50;4863716;28;98201;-73
2023/08/20 09:16:54;;;;;;;;;;;;;;;28.90;43.39;101224.84;4893916;28;100020;-72
2023/08/20 09:19:20;;;;;;;;;;;;;;;28.87;43.65;101229.16;4850309;28;98111;-71
2023/08/20 09:21:48;;;;;;;;;;;;;;;28.85;43.53;101228.75;4862087;28;98549;-71
2023/08/20 09:24:14;;;;;;;;;;;;;;;28.80;43.27;101231.81;4868163;28;99790;-71
2023/08/20 09:26:45;;;;;;;;;;;;;;;28.78;43.51;101239.72;4881330;28;98827;-72
2023/08/20 09:29:11;;;;;;;;;;;;;;;28.78;43.38;101242.50;4859102;28;98541;-72
2023/08/20 09:31:38;;;;;;;;;;;;;;;28.87;43.00;101243.03;4852715;28;98564;-72
2023/08/20 09:34:04;;;;;;;;;;;;;;;28.94;42.99;101247.91;4864777;28;99035;-73
2023/08/20 09:36:34;;;;;;;;;;;;;;;29.18;42.69;101244.69;4867463;28;104344;-71
2023/08/20 09:39:02;;;;;;;;;;;;;;;31.00;40.61;101245.75;4860741;28;98348;-71
2023/08/20 09:41:28;;;;;;;;;;;;;;;29.92;42.28;101234.91;4845966;28;98190;-73
2023/08/20 09:43:57;;;;;;;;;;;;;;;29.55;42.90;101230.09;4899807;28;99042;-73
2023/08/20 09:46:26;;;;;;;;;;;;;;;29.38;42.78;101223.16;4863243;28;98293;-72
2023/08/20 09:48:55;;;;;;;;;;;;;;;29.34;43.05;101220.31;4865613;28;98477;-73
2023/08/20 09:51:26;;;;;;;;;;;;;;;29.84;42.06;101226.50;4882304;28;98213;-73
2023/08/20 09:54:04;;;;;;;;;;;;;;;34.14;37.07;101242.16;4843044;28;99327;-73
2023/08/20 09:56:34;;;;;;;;;;;;;;;36.91;35.36;101249.47;4896659;28;100239;-71
2023/08/20 09:59:01;;;;;;;;;;;;;;;38.66;34.67;101254.78;4875079;28;115336;-71
2023/08/20 10:01:28;;;;;;;;;;;;;;;39.95;34.04;101248.28;4861618;28;98685;-72
2023/08/20 10:03:54;;;;;;;;;;;;;;;40.97;33.63;101231.91;4861880;28;99572;-72
2023/08/20 10:06:20;;;;;;;;;;;;;;;41.98;33.37;101243.00;4862596;28;99162;-72
2023/08/20 10:08:49;;;;;;;;;;;;;;;42.25;34.01;101224.50;4882059;28;99596;-72
2023/08/20 10:11:15;;;;;;;;;;;;;;;42.85;33.61;101224.72;4864269;28;98460;-72
2023/08/20 10:13:42;;;;;;;;;;;;;;;43.24;33.67;101210.81;4878615;28;98274;-72
2023/08/20 10:16:08;;;;;;;;;;;;;;;43.77;33.96;101218.78;4879473;28;99707;-72
2023/08/20 10:18:35;;;;;;;;;;;;;;;44.24;33.82;101211.59;4863180;28;98287;-72
2023/08/20 10:21:02;;;;;;;;;;;;;;;44.53;33.99;101202.41;4866343;28;98129;-72
2023/08/20 10:23:28;;;;;;;;;;;;;;;44.87;33.91;101197.38;4860921;28;98093;-72
2023/08/20 10:25:54;;;;;;;;;;;;;;;44.98;34.03;101193.94;4863396;28;98268;-72
2023/08/20 10:28:22;;;;;;;;;;;;;;;45.23;34.32;101193.34;4883593;28;98121;-72
2023/08/20 10:31:07;;;;;;;;;;;;;;;45.44;34.20;101185.72;4882379;28;99258;-72
2023/08/20 10:33:35;;;;;;;;;;;;;;;45.61;33.95;101179.47;4895800;28;98424;-72
2023/08/20 10:36:09;;;;;;;;;;;;;;;45.74;34.38;101179.91;4877910;28;98472;-72
2023/08/20 10:38:38;;;;;;;;;;;;;;;44.54;35.65;101169.09;4860419;28;98456;-72
2023/08/20 10:41:07;;;;;;;;;;;;;;;45.43;34.93;101169.13;4879506;28;98464;-72
2023/08/20 10:43:40;;;;;;;;;;;;;;;45.74;34.20;101171.38;4878081;28;99351;-71
2023/08/20 10:46:16;;;;;;;;;;;;;;;44.61;35.60;101157.34;4864835;28;98152;-72
2023/08/20 10:48:52;;;;;;;;;;;;;;;43.69;36.67;101168.56;4864497;28;98092;-72
2023/08/20 10:51:18;;;;;;;;;;;;;;;42.34;37.93;101160.19;4860108;28;98063;-71
2023/08/20 10:54:11;;;;;;;;;;;;;;;41.91;38.23;101158.41;4875552;28;98425;-72
2023/08/20 10:56:43;;;;;;;;;;;;;;;41.19;38.72;101157.63;4857904;28;98161;-72
2023/08/20 10:59:16;;;;;;;;;;;;;;;41.74;37.88;101157.88;4878193;28;99497;-71
2023/08/20 11:01:49;;;;;;;;;;;;;;;40.94;38.16;101155.72;4896205;28;97955;-71
2023/08/20 11:04:16;;;;;;;;;;;;;;;40.14;39.19;101147.72;4866045;28;100086;-72
2023/08/20 11:06:43;;;;;;;;;;;;;;;39.64;39.40;101136.00;4878637;28;98457;-71
2023/08/20 11:09:10;;;;;;;;;;;;;;;39.39;39.58;101147.31;4865501;28;99751;-71
2023/08/20 11:11:39;;;;;;;;;;;;;;;40.25;38.22;101145.31;4880713;28;98101;-71
2023/08/20 11:14:07;;;;;;;;;;;;;;;39.51;39.04;101144.50;4862838;28;100212;-71
2023/08/20 11:16:34;;;;;;;;;;;;;;;41.24;36.75;101142.88;4880557;28;98463;-72
2023/08/20 11:19:00;;;;;;;;;;;;;;;41.21;37.18;101146.63;4873312;28;98072;-70
2023/08/20 11:21:28;;;;;;;;;;;;;;;41.81;36.75;101148.28;4847023;28;98374;-71
2023/08/20 11:23:55;;;;;;;;;;;;;;;41.90;36.80;101151.97;4862075;28;98231;-71
2023/08/20 11:26:21;;;;;;;;;;;;;;;41.80;36.76;101153.16;4841298;28;98253;-71
2023/08/20 11:28:47;;;;;;;;;;;;;;;41.84;37.08;101150.22;4841633;28;98419;-71
2023/08/20 11:31:13;;;;;;;;;;;;;;;41.84;36.80;101148.16;4847037;28;98323;-72
2023/08/20 11:33:40;;;;;;;;;;;;;;;41.93;36.89;101139.69;4856645;28;99540;-71
2023/08/20 11:36:06;;;;;;;;;;;;;;;42.14;36.76;101148.53;4847204;28;98634;-72
2023/08/20 11:38:32;;;;;;;;;;;;;;;42.35;36.92;101146.81;4853464;28;99212;-71
2023/08/20 11:41:01;;;;;;;;;;;;;;;42.45;36.68;101145.56;4856850;28;99140;-70
2023/08/20 11:43:28;;;;;;;;;;;;;;;42.53;36.26;101141.16;4854711;28;98593;-71
2023/08/20 11:45:54;;;;;;;;;;;;;;;42.53;36.74;101144.00;4854446;28;98723;-73
2023/08/20 11:48:23;;;;;;;;;;;;;;;42.53;36.73;101146.81;4854459;28;114838;-73
2023/08/20 11:50:56;;;;;;;;;;;;;;;42.53;36.65;101137.56;4847147;28;98192;-72
2023/08/20 11:53:23;;;;;;;;;;;;;;;42.50;37.02;101141.31;4860252;28;98728;-72
2023/08/20 11:55:49;;;;;;;;;;;;;;;42.42;36.85;101135.97;4844305;28;98303;-71
2023/08/20 11:58:15;;;;;;;;;;;;;;;42.45;36.72;101131.41;4871905;28;98840;-71
2023/08/20 12:00:42;;;;;;;;;;;;;;;41.40;37.97;101127.75;4845293;28;98507;-71
2023/08/20 12:03:09;;;;;;;;;;;;;;;40.68;38.68;101119.16;4855321;28;99615;-71
2023/08/20 12:05:35;;;;;;;;;;;;;;;40.79;38.35;101121.56;4861648;28;98771;-71
2023/08/20 12:08:02;;;;;;;;;;;;;;;40.96;37.87;101113.69;4877711;28;98356;-71
2023/08/20 12:10:29;;;;;;;;;;;;;;;41.19;37.75;101118.06;4836088;28;98121;-70
2023/08/20 12:12:56;;;;;;;;;;;;;;;40.88;38.06;101110.34;4839876;28;98351;-71
2023/08/20 12:15:22;;;;;;;;;;;;;;;40.99;38.09;101109.94;4857874;28;98263;-71
2023/08/20 12:18:01;;;;;;;;;;;;;;;41.24;37.96;101108.19;4854292;28;99297;-70
2023/08/20 12:20:29;;;;;;;;;;;;;;;41.28;37.87;101103.19;4859544;28;102283;-71
2023/08/20 12:22:57;;;;;;;;;;;;;;;41.23;37.51;101104.56;4874120;28;98826;-71
2023/08/20 12:25:23;;;;;;;;;;;;;;;40.92;37.94;101104.56;4861909;28;100195;-70
2023/08/20 12:27:49;;;;;;;;;;;;;;;40.86;38.28;101095.09;4872360;28;98564;-72
2023/08/20 12:30:15;;;;;;;;;;;;;;;41.02;37.68;101097.72;4876020;28;98475;-71
2023/08/20 12:32:41;;;;;;;;;;;;;;;41.00;38.04;101090.97;4878913;28;98287;-70
2023/08/20 12:35:08;;;;;;;;;;;;;;;40.94;38.11;101102.03;4861781;28;99551;-71